Terminal Aerodrome Forecast
Issued by NWS

Home | Current Version | Previous Version | Text Only | Print | Product List | Glossary On
Versions: 1 2 3 4 5 6 7 8 9 10 11 12 13 14 15
000
FTUS42 TJSJ 312338
TAFIST
TAF
TIST 312338Z 0100/0124 10014KT P6SM VCSH FEW022 BKN050 BKN090
     FM010330 09010KT P6SM -RA SCT022 BKN050
     FM011430 11014KT P6SM FEW025 SCT050 SCT100=

USA.gov is the U.S. government's official web portal to all federal, state and local government web resources and services.